This is the latest recevied weather packets stored in our database for station/object HP1PCR-13. If no packets are shown the sender has not sent any weather packets the latest 10 day(s).
| Time | Temp. | Humidity | Pressure | Rain* | Wind** | Luminosity | Snow |
|---|---|---|---|---|---|---|---|
| 1777614849 | 31.67° C | 44% | 1001.3 hPa | - | - | - | - |
| 1777614245 | 31.67° C | 43% | 1001.4 hPa | - | - | - | - |
| 1777613641 | 31.67° C | 42% | 1001.6 hPa | - | - | - | - |
| 1777613036 | 31.67° C | 41% | 1001.7 hPa | - | - | - | - |
| 1777612432 | 31.11° C | 41% | 1002 hPa | - | - | - | - |
| 1777611828 | 31.11° C | 41% | 1002.2 hPa | - | - | - | - |
| 1777611224 | 31.11° C | 41% | 1002.3 hPa | - | - | - | - |
| 1777610620 | 30.56° C | 41% | 1002.3 hPa | - | - | - | - |
| 1777610016 | 30° C | 37% | 1002.4 hPa | - | - | - | - |
| 1777609412 | 30.56° C | 38% | 1002.5 hPa | - | - | - | - |
| 1777608808 | 30° C | 31% | 1002.5 hPa | - | - | - | - |
| 1777608204 | 30.56° C | 38% | 1002.5 hPa | - | - | - | - |
| 1777607600 | 30.56° C | 35% | 1002.7 hPa | - | - | - | - |
| 1777606995 | 30.56° C | 32% | 1002.6 hPa | - | - | - | - |
| 1777606391 | 30.56° C | 36% | 1002.5 hPa | - | - | - | - |
| 1777605787 | 31.11° C | 36% | 1002.5 hPa | - | - | - | - |
| 1777605183 | 31.11° C | 32% | 1002.5 hPa | - | - | - | - |
| 1777604579 | 31.11° C | 35% | 1002.6 hPa | - | - | - | - |
| 1777603974 | 31.11° C | 34% | 1002.5 hPa | - | - | - | - |
| 1777603370 | 31.11° C | 33% | 1002.4 hPa | - | - | - | - |
| 1777602767 | 31.67° C | 31% | 1002.2 hPa | - | - | - | - |
| 1777602162 | 31.67° C | 28% | 1001.8 hPa | - | - | - | - |
| 1777601559 | 31.67° C | 31% | 1001.5 hPa | - | - | - | - |
| 1777599142 | 33.89° C | 31% | 1000.7 hPa | - | - | - | - |
| 1777598538 | 34.44° C | 41% | 1000.5 hPa | - | - | - | - |
* Rain since midnight (hover to see other rain measurements)
** Current wind speed in m/s (hover to see current wind gust speed)